Time;durP1;ratioP1;P1;durP2;ratioP2;P2;SDS_P1;SDS_P2;PMS_P1;PMS_P2;Temp;Humidity;BMP_temperature;BMP_pressure;BME280_temperature;BME280_humidity;BME280_pressure;Samples;Min_cycle;Max_cycle;Signal;HPM_P1;HPM_P2
2022/06/12 00:00:58;;;;;;;10.20;5.00;;;;;16.28;97344.00;;;;108791;1269;41403;-65
2022/06/12 00:03:28;;;;;;;;;;;;;16.30;97344.00;;;;108795;1267;41411;-65
2022/06/12 00:06:01;;;;;;;10.60;5.20;;;;;16.30;97348.20;;;;108920;1267;41406;-65
2022/06/12 00:08:37;;;;;;;12.50;6.00;;;;;16.30;97343.60;;;;108534;1270;41203;-65
2022/06/12 00:11:14;;;;;;;;;;;;;16.30;97340.80;;;;108811;1267;41805;-65
2022/06/12 00:13:50;;;;;;;15.30;7.70;;;;;16.40;97344.00;;;;108923;1265;41954;-65
2022/06/12 00:16:21;;;;;;;18.00;9.20;;;;;16.36;97340.60;;;;108855;1267;41393;-65
2022/06/12 00:18:51;;;;;;;16.20;6.40;;;;;16.38;97342.60;;;;108792;1269;41284;-65
2022/06/12 00:21:22;;;;;;;11.30;6.00;;;;;16.30;97339.20;;;;108825;1268;41682;-65
2022/06/12 00:23:55;;;;;;;12.70;6.50;;;;;16.30;97342.40;;;;108897;1268;42278;-65
2022/06/12 00:26:34;;;;;;;40.90;8.40;;;;;16.22;97344.00;;;;108813;1268;42859;-65
2022/06/12 00:29:10;;;;;;;22.70;7.20;;;;;16.20;97339.80;;;;108902;1267;40845;-65
2022/06/12 00:31:44;;;;;;;12.70;5.20;;;;;16.10;97338.80;;;;108941;1267;41956;-66
2022/06/12 00:34:16;;;;;;;15.50;7.10;;;;;16.10;97338.60;;;;108809;1268;41167;-66
2022/06/12 00:36:46;;;;;;;9.50;4.90;;;;;16.08;97339.40;;;;108949;1267;41280;-66
2022/06/12 00:39:17;;;;;;;10.30;4.90;;;;;16.00;97335.20;;;;108968;1268;41161;-65
2022/06/12 00:41:51;;;;;;;9.30;4.80;;;;;16.00;97326.60;;;;109002;1268;41419;-66
2022/06/12 00:44:32;;;;;;;9.40;4.60;;;;;15.94;97328.40;;;;108841;1270;41178;-65
2022/06/12 00:47:05;;;;;;;13.00;5.00;;;;;15.90;97338.40;;;;108876;1268;41559;-66
2022/06/12 00:49:52;;;;;;;14.30;5.30;;;;;15.90;97333.80;;;;108885;1267;42266;-65
2022/06/12 00:52:42;;;;;;;9.60;4.90;;;;;15.90;97328.40;;;;108867;1268;41232;-66
2022/06/12 00:55:24;;;;;;;38.80;5.90;;;;;15.80;97328.20;;;;108830;1270;41202;-66
2022/06/12 00:58:11;;;;;;;13.80;5.50;;;;;15.80;97330.60;;;;108801;1268;41493;-66
2022/06/12 01:00:42;;;;;;;9.60;4.30;;;;;15.80;97328.60;;;;108920;1267;41969;-66
2022/06/12 01:03:12;;;;;;;;;;;;;15.80;97326.00;;;;108960;1267;42014;-66
2022/06/12 01:08:34;;;;;;;12.40;6.60;;;;;15.70;97323.60;;;;109007;1267;41177;-66
2022/06/12 01:11:11;;;;;;;26.40;6.40;;;;;15.70;97319.80;;;;108830;1268;41233;-66
2022/06/12 01:13:45;;;;;;;16.70;7.30;;;;;15.80;97327.40;;;;109081;1267;41633;-67
2022/06/12 01:20:17;;;;;;;11.00;5.00;;;;;15.80;97327.60;;;;108947;1267;41658;-66
2022/06/12 01:23:15;;;;;;;16.30;7.60;;;;;15.90;97326.00;;;;108794;1267;41465;-66
2022/06/12 01:25:55;;;;;;;16.70;7.50;;;;;16.00;97320.20;;;;108899;1267;41600;-65
2022/06/12 01:28:38;;;;;;;;;;;;;16.00;97322.80;;;;108922;1268;41277;-65
2022/06/12 01:31:28;;;;;;;25.30;7.00;;;;;16.00;97317.80;;;;108976;1267;41178;-66
2022/06/12 01:34:03;;;;;;;;;;;;;16.08;97326.20;;;;108806;1268;41174;-66
2022/06/12 01:36:55;;;;;;;32.90;10.50;;;;;16.10;97327.60;;;;108910;1267;41377;-66
2022/06/12 01:39:53;;;;;;;13.10;6.40;;;;;16.10;97327.80;;;;108791;1268;41294;-66
2022/06/12 01:42:47;;;;;;;37.60;7.10;;;;;16.10;97326.40;;;;108910;1267;41649;-66
2022/06/12 01:45:45;;;;;;;30.60;7.30;;;;;16.10;97319.60;;;;108875;1268;41461;-66
2022/06/12 01:48:16;;;;;;;33.60;5.70;;;;;16.10;97318.80;;;;108906;1267;41173;-65
2022/06/12 01:50:59;;;;;;;38.60;9.40;;;;;16.10;97317.80;;;;108958;1266;41191;-65
2022/06/12 01:53:54;;;;;;;26.10;8.30;;;;;16.10;97317.60;;;;108941;1267;41180;-66
2022/06/12 01:56:46;;;;;;;61.70;10.90;;;;;16.20;97315.80;;;;108853;1270;41210;-65
2022/06/12 01:59:22;;;;;;;50.60;9.60;;;;;16.20;97313.60;;;;108840;1270;41216;-65
2022/06/12 02:02:01;;;;;;;28.50;8.20;;;;;16.20;97314.40;;;;108891;1267;41189;-66
2022/06/12 02:04:43;;;;;;;23.30;8.00;;;;;16.10;97316.20;;;;108831;1267;41195;-65
2022/06/12 02:07:25;;;;;;;23.30;7.10;;;;;16.10;97313.20;;;;108897;1268;42379;-65
2022/06/12 02:10:00;;;;;;;23.90;9.80;;;;;16.10;97315.60;;;;108880;1267;41285;-65
2022/06/12 02:15:36;;;;;;;12.30;6.80;;;;;16.00;97317.80;;;;108822;1268;41532;-65
2022/06/12 02:18:30;;;;;;;12.20;6.70;;;;;16.00;97315.40;;;;108909;1267;41961;-66
2022/06/12 02:21:08;;;;;;;12.40;6.40;;;;;16.00;97318.00;;;;108984;1267;42494;-65
2022/06/12 02:23:45;;;;;;;13.30;5.90;;;;;16.00;97312.20;;;;108987;1267;41750;-65
2022/06/12 02:26:20;;;;;;;16.90;9.10;;;;;16.10;97318.60;;;;109006;1267;42397;-66
2022/06/12 02:28:55;;;;;;;14.60;7.70;;;;;16.10;97317.20;;;;108777;1267;41417;-65
2022/06/12 02:31:37;;;;;;;15.30;7.30;;;;;16.18;97317.40;;;;108779;1268;41177;-66
2022/06/12 02:34:13;;;;;;;16.40;8.80;;;;;16.20;97316.80;;;;108864;1268;41182;-65
2022/06/12 02:36:48;;;;;;;15.70;8.50;;;;;16.20;97318.00;;;;108888;1267;41192;-65
2022/06/12 02:39:31;;;;;;;18.00;8.70;;;;;16.20;97319.60;;;;109033;1268;42002;-66
2022/06/12 02:42:06;;;;;;;14.00;7.70;;;;;16.20;97317.00;;;;108887;1267;41648;-66
2022/06/12 02:44:54;;;;;;;12.90;6.60;;;;;16.20;97316.80;;;;108792;1268;40753;-65
2022/06/12 02:47:28;;;;;;;14.80;5.90;;;;;16.20;97320.80;;;;108827;1269;41159;-65
2022/06/12 02:49:59;;;;;;;12.30;5.80;;;;;16.20;97324.60;;;;108844;1270;41274;-65
2022/06/12 02:52:35;;;;;;;10.40;5.40;;;;;16.22;97325.80;;;;108784;1270;41325;-66
2022/06/12 02:55:28;;;;;;;10.60;5.60;;;;;16.22;97316.40;;;;108879;1268;41176;-66
2022/06/12 02:58:19;;;;;;;12.60;6.90;;;;;16.28;97317.00;;;;108824;1268;41278;-66
2022/06/12 03:00:55;;;;;;;10.80;5.50;;;;;16.30;97316.60;;;;108827;1270;41426;-66
2022/06/12 03:03:41;;;;;;;11.00;5.20;;;;;16.30;97320.20;;;;108820;1270;42017;-66
2022/06/12 03:06:12;;;;;;;10.60;5.20;;;;;16.30;97321.60;;;;108964;1267;42157;-65
2022/06/12 03:08:46;;;;;;;10.10;4.80;;;;;16.30;97322.20;;;;108858;1268;41162;-66
2022/06/12 03:11:22;;;;;;;10.30;5.30;;;;;16.30;97325.80;;;;108806;1269;42185;-66
2022/06/12 03:13:54;;;;;;;10.10;5.40;;;;;16.30;97323.40;;;;108958;1270;41289;-66
2022/06/12 03:16:31;;;;;;;13.20;6.00;;;;;16.30;97325.00;;;;108751;1268;41524;-67
2022/06/12 03:19:05;;;;;;;10.30;5.30;;;;;16.30;97328.00;;;;108950;1267;41845;-65
2022/06/12 03:21:43;;;;;;;17.40;6.90;;;;;16.30;97331.00;;;;108843;1267;41285;-66
2022/06/12 03:24:28;;;;;;;16.90;9.00;;;;;16.40;97332.60;;;;108775;1270;42270;-66
2022/06/12 03:27:27;;;;;;;14.70;8.00;;;;;16.40;97331.60;;;;108828;1268;41976;-66
2022/06/12 03:30:23;;;;;;;15.40;8.40;;;;;16.40;97332.40;;;;108791;1268;41284;-65
2022/06/12 03:33:18;;;;;;;13.80;7.40;;;;;16.40;97328.80;;;;108803;1268;42006;-65
2022/06/12 03:35:53;;;;;;;14.80;7.90;;;;;16.50;97330.40;;;;108802;1270;41841;-65
2022/06/12 03:38:36;;;;;;;14.20;6.90;;;;;16.50;97330.20;;;;108783;1267;41677;-65
2022/06/12 03:41:19;;;;;;;13.20;6.40;;;;;16.54;97322.00;;;;108791;1268;41181;-65
2022/06/12 03:43:59;;;;;;;13.40;5.70;;;;;16.60;97324.40;;;;108847;1270;41714;-65
2022/06/12 03:46:55;;;;;;;11.30;5.00;;;;;16.70;97327.40;;;;108862;1268;41817;-65
2022/06/12 03:49:28;;;;;;;10.00;4.40;;;;;16.80;97333.40;;;;108825;1268;41949;-65
2022/06/12 03:52:12;;;;;;;10.80;5.30;;;;;16.88;97329.00;;;;108891;1267;41786;-65
2022/06/12 03:55:12;;;;;;;11.30;5.60;;;;;16.94;97326.20;;;;108943;1267;42624;-66
2022/06/12 03:57:53;;;;;;;10.80;5.10;;;;;17.10;97326.60;;;;108953;1268;41416;-65
2022/06/12 04:00:36;;;;;;;11.70;5.10;;;;;17.20;97320.80;;;;108884;1270;41165;-65
2022/06/12 04:03:13;;;;;;;12.00;6.30;;;;;17.30;97322.20;;;;108999;1268;42341;-66
2022/06/12 04:05:47;;;;;;;12.70;5.50;;;;;17.50;97329.40;;;;108826;1267;41198;-65
2022/06/12 04:08:41;;;;;;;11.30;5.30;;;;;17.60;97329.20;;;;108879;1267;41284;-65
2022/06/12 04:11:14;;;;;;;16.90;8.40;;;;;17.80;97331.80;;;;108905;1267;41174;-66
2022/06/12 04:13:45;;;;;;;15.40;8.30;;;;;17.80;97331.20;;;;108892;1267;41208;-66
2022/06/12 04:16:31;;;;;;;21.60;8.50;;;;;17.80;97333.60;;;;108926;1267;41845;-66
2022/06/12 04:19:03;;;;;;;13.30;7.70;;;;;17.90;97331.60;;;;108866;1267;41467;-66
2022/06/12 04:21:39;;;;;;;12.70;7.10;;;;;18.26;97323.00;;;;108919;1267;41910;-66
2022/06/12 04:24:15;;;;;;;12.60;6.80;;;;;19.34;97304.40;;;;108906;1267;41935;-66
2022/06/12 04:26:51;;;;;;;13.80;7.00;;;;;20.44;97305.20;;;;108856;1268;41181;-65
2022/06/12 04:29:30;;;;;;;11.30;6.40;;;;;21.00;97306.80;;;;108902;1266;42211;-66
2022/06/12 04:32:01;;;;;;;14.00;8.10;;;;;21.52;97302.40;;;;108876;1267;41526;-66
2022/06/12 04:34:34;;;;;;;14.20;7.40;;;;;21.74;97305.60;;;;108811;1269;41173;-66
2022/06/12 04:37:20;;;;;;;12.20;6.70;;;;;22.04;97300.20;;;;108754;1269;41177;-66
2022/06/12 04:39:51;;;;;;;12.80;6.80;;;;;22.80;97304.40;;;;108780;1270;41575;-66
2022/06/12 04:42:23;;;;;;;13.00;6.70;;;;;22.98;97309.00;;;;108926;1267;41273;-66
2022/06/12 04:44:53;;;;;;;10.40;5.20;;;;;23.20;97309.40;;;;108948;1267;41277;-66
2022/06/12 04:47:24;;;;;;;12.30;6.30;;;;;24.00;97304.60;;;;108975;1267;41290;-66
2022/06/12 04:49:53;;;;;;;11.60;5.40;;;;;24.40;97293.60;;;;108947;1267;41877;-66
2022/06/12 04:52:25;;;;;;;10.30;5.10;;;;;24.80;97295.80;;;;108891;1267;42396;-66
2022/06/12 04:54:54;;;;;;;10.00;5.20;;;;;25.36;97285.80;;;;108911;1267;41845;-66
2022/06/12 04:57:25;;;;;;;15.00;6.70;;;;;25.80;97296.00;;;;108756;1269;42183;-66
2022/06/12 04:59:55;;;;;;;15.50;6.50;;;;;26.24;97293.40;;;;108977;1268;41281;-66
2022/06/12 05:02:24;;;;;;;10.90;5.60;;;;;26.50;97297.80;;;;108847;1270;41215;-66
2022/06/12 05:04:54;;;;;;;12.50;7.20;;;;;27.00;97293.00;;;;108830;1268;41183;-66
2022/06/12 05:07:24;;;;;;;11.70;5.40;;;;;27.20;97295.40;;;;108889;1266;41322;-68
2022/06/12 05:09:53;;;;;;;11.80;5.90;;;;;27.16;97302.20;;;;108883;1267;41387;-67
2022/06/12 05:12:23;;;;;;;10.40;5.30;;;;;27.24;97311.60;;;;108771;1270;41184;-66
2022/06/12 05:14:52;;;;;;;13.10;7.00;;;;;26.80;97299.00;;;;108841;1270;41902;-67
2022/06/12 05:17:22;;;;;;;14.50;6.70;;;;;26.72;97321.40;;;;109030;1267;42095;-66
2022/06/12 05:19:52;;;;;;;14.60;7.80;;;;;25.80;97332.60;;;;109001;1267;41281;-67
2022/06/12 05:22:23;;;;;;;13.10;6.60;;;;;24.38;97334.80;;;;108922;1267;41281;-67
2022/06/12 05:24:52;;;;;;;13.50;6.70;;;;;23.66;97341.80;;;;108833;1267;42302;-65
2022/06/12 05:27:23;;;;;;;13.40;6.90;;;;;23.50;97330.20;;;;108762;1271;41495;-66
2022/06/12 05:29:53;;;;;;;10.40;5.80;;;;;23.10;97346.20;;;;108924;1267;41180;-67
2022/06/12 05:32:22;;;;;;;11.80;5.80;;;;;23.10;97350.40;;;;108943;1270;42235;-66
2022/06/12 05:34:53;;;;;;;12.20;6.30;;;;;23.20;97351.20;;;;108937;1270;41306;-66
2022/06/12 05:37:22;;;;;;;14.80;5.40;;;;;23.20;97354.00;;;;108910;1268;41271;-66
2022/06/12 05:39:53;;;;;;;10.20;4.70;;;;;23.40;97352.20;;;;108852;1267;41289;-66
2022/06/12 05:42:22;;;;;;;8.10;4.00;;;;;23.60;97348.20;;;;108875;1267;41282;-66
2022/06/12 05:44:52;;;;;;;9.00;4.20;;;;;23.70;97352.80;;;;108943;1267;41973;-66
2022/06/12 05:47:22;;;;;;;8.10;3.70;;;;;23.80;97355.00;;;;108920;1267;41168;-66
2022/06/12 05:49:51;;;;;;;11.00;4.10;;;;;23.82;97354.60;;;;108887;1269;41285;-66
2022/06/12 05:52:20;;;;;;;8.40;3.70;;;;;23.80;97354.40;;;;108835;1269;41226;-66
2022/06/12 05:54:49;;;;;;;8.90;3.90;;;;;23.70;97365.20;;;;108790;1270;41459;-66
2022/06/12 05:57:19;;;;;;;9.80;3.80;;;;;23.56;97362.60;;;;108810;1268;41538;-67
2022/06/12 05:59:48;;;;;;;7.70;3.70;;;;;23.50;97365.80;;;;108916;1267;41432;-66
2022/06/12 06:02:17;;;;;;;7.60;3.60;;;;;23.50;97366.20;;;;108932;1267;41198;-66
2022/06/12 06:04:47;;;;;;;8.10;3.50;;;;;23.80;97350.80;;;;108941;1267;41170;-67
2022/06/12 06:07:16;;;;;;;7.60;3.50;;;;;24.10;97367.40;;;;108829;1267;41497;-66
2022/06/12 06:09:46;;;;;;;7.70;3.40;;;;;24.54;97340.60;;;;108913;1267;42399;-67
2022/06/12 06:12:15;;;;;;;9.80;4.10;;;;;24.84;97368.00;;;;108923;1267;42279;-66
2022/06/12 06:14:45;;;;;;;9.90;3.70;;;;;24.60;97368.40;;;;108807;1268;41804;-67
2022/06/12 06:17:14;;;;;;;9.30;4.00;;;;;24.16;97369.60;;;;108932;1270;41453;-67
2022/06/12 06:19:43;;;;;;;10.20;3.80;;;;;24.10;97368.60;;;;108758;1267;41174;-66
2022/06/12 06:22:16;;;;;;;8.10;3.20;;;;;24.60;97368.00;;;;108977;1268;41174;-66
2022/06/12 06:24:46;;;;;;;7.80;3.60;;;;;24.90;97368.20;;;;108915;1267;41613;-66
2022/06/12 06:27:16;;;;;;;8.10;3.80;;;;;24.90;97372.40;;;;108860;1269;41211;-67
2022/06/12 06:29:45;;;;;;;7.70;3.50;;;;;24.40;97373.00;;;;108623;1267;400632;-66
2022/06/12 06:32:14;;;;;;;8.80;3.20;;;;;24.50;97373.20;;;;108933;1267;41852;-66
2022/06/12 06:34:44;;;;;;;8.60;3.80;;;;;24.60;97374.20;;;;108893;1267;41833;-66
2022/06/12 06:37:13;;;;;;;7.90;3.10;;;;;24.62;97376.20;;;;108901;1267;41257;-67
2022/06/12 06:39:42;;;;;;;7.10;3.40;;;;;24.66;97373.60;;;;108854;1267;41147;-67
2022/06/12 06:42:11;;;;;;;8.30;4.00;;;;;24.80;97378.20;;;;108956;1267;41186;-67
2022/06/12 06:47:32;;;;;;;9.30;3.70;;;;;23.64;97388.80;;;;108868;1267;42467;-67
2022/06/12 06:50:02;;;;;;;9.20;3.90;;;;;23.80;97394.00;;;;108969;1267;41179;-67
2022/06/12 06:52:31;;;;;;;8.30;4.00;;;;;23.86;97390.20;;;;108786;1267;41216;-67
2022/06/12 06:55:01;;;;;;;8.60;3.90;;;;;24.06;97393.80;;;;108918;1267;41378;-65
2022/06/12 06:57:31;;;;;;;9.00;3.40;;;;;24.66;97387.80;;;;108760;1268;41640;-65
2022/06/12 07:00:00;;;;;;;7.60;3.50;;;;;25.30;97392.40;;;;108939;1267;41179;-66
2022/06/12 07:02:29;;;;;;;8.60;3.70;;;;;25.50;97394.20;;;;108711;1267;41345;-67
2022/06/12 07:04:59;;;;;;;19.70;3.30;;;;;25.40;97393.20;;;;109012;1267;41192;-67
2022/06/12 07:07:28;;;;;;;6.70;3.10;;;;;25.42;97394.60;;;;108928;1267;41229;-67
2022/06/12 07:09:57;;;;;;;9.70;3.20;;;;;25.54;97391.40;;;;108849;1267;41291;-67
2022/06/12 07:12:26;;;;;;;7.80;3.70;;;;;25.70;97391.40;;;;108904;1269;41282;-67
2022/06/12 07:15:00;;;;;;;8.40;4.00;;;;;25.70;97392.20;;;;108847;1267;41197;-67
2022/06/12 07:17:29;;;;;;;8.00;3.70;;;;;25.50;97391.80;;;;108844;1269;41621;-67
2022/06/12 07:19:58;;;;;;;6.40;3.10;;;;;25.20;97385.20;;;;108673;1270;42854;-67
2022/06/12 07:22:27;;;;;;;7.90;3.40;;;;;25.20;97392.20;;;;108896;1267;42014;-67
2022/06/12 07:24:57;;;;;;;6.00;2.80;;;;;25.30;97395.20;;;;108765;1269;41961;-67
2022/06/12 07:27:26;;;;;;;6.90;2.90;;;;;25.40;97394.60;;;;108974;1268;42003;-67
2022/06/12 07:29:56;;;;;;;8.20;3.20;;;;;25.60;97396.40;;;;108798;1267;41677;-66
2022/06/12 07:32:26;;;;;;;7.80;3.00;;;;;25.70;97400.60;;;;108929;1270;41962;-67
2022/06/12 07:34:55;;;;;;;9.00;3.30;;;;;25.90;97404.40;;;;108900;1268;41151;-67
2022/06/12 07:37:25;;;;;;;7.20;3.40;;;;;26.00;97404.60;;;;108875;1269;41177;-67
2022/06/12 07:39:54;;;;;;;10.20;3.40;;;;;26.10;97409.00;;;;108746;1270;41176;-67
2022/06/12 07:42:28;;;;;;;7.10;3.40;;;;;26.20;97410.80;;;;108800;1270;41893;-67
2022/06/12 07:44:58;;;;;;;8.10;3.50;;;;;26.24;97410.40;;;;108921;1267;42027;-67
2022/06/12 07:47:28;;;;;;;7.20;3.40;;;;;26.20;97413.20;;;;108907;1267;41275;-67
2022/06/12 07:49:57;;;;;;;;;;;;;25.84;97412.20;;;;108856;1268;41290;-67
2022/06/12 07:52:27;;;;;;;8.30;3.40;;;;;26.12;97408.00;;;;108873;1268;41272;-67
2022/06/12 07:54:56;;;;;;;9.90;3.60;;;;;26.50;97407.60;;;;108842;1269;41289;-67
2022/06/12 07:57:26;;;;;;;6.40;3.10;;;;;26.90;97406.60;;;;108950;1267;41382;-67
2022/06/12 07:59:57;;;;;;;6.70;2.60;;;;;27.10;97411.40;;;;108856;1268;41171;-67
2022/06/12 08:02:25;;;;;;;6.00;2.80;;;;;27.48;97410.60;;;;108877;1270;41178;-67
2022/06/12 08:04:55;;;;;;;6.30;2.80;;;;;27.86;97409.20;;;;108678;1270;41200;-67
2022/06/12 08:07:24;;;;;;;6.40;3.00;;;;;28.10;97413.60;;;;108926;1270;41157;-67
2022/06/12 08:09:53;;;;;;;7.20;3.20;;;;;28.10;97416.40;;;;108780;1270;41745;-67
2022/06/12 08:12:22;;;;;;;6.30;2.70;;;;;28.00;97419.00;;;;108813;1270;41176;-67
2022/06/12 08:14:53;;;;;;;6.20;2.90;;;;;28.00;97422.00;;;;108861;1270;42404;-67
2022/06/12 08:17:22;;;;;;;6.90;2.80;;;;;28.00;97419.40;;;;108924;1270;42268;-67
2022/06/12 08:22:39;;;;;;;6.20;2.70;;;;;28.30;97417.60;;;;108876;1270;41211;-67
2022/06/12 08:25:09;;;;;;;6.00;2.90;;;;;28.42;97415.80;;;;108721;1270;41450;-67
2022/06/12 08:27:38;;;;;;;7.30;2.80;;;;;28.70;97416.20;;;;108813;1269;41185;-67
2022/06/12 08:30:08;;;;;;;6.70;2.90;;;;;28.80;97414.80;;;;108884;1267;41634;-67
2022/06/12 08:32:38;;;;;;;7.10;3.00;;;;;28.70;97417.60;;;;108810;1270;41206;-67
2022/06/12 08:35:16;;;;;;;12.00;7.00;;;;;28.70;97420.40;;;;108824;1270;42307;-67
2022/06/12 08:37:45;;;;;;;8.30;4.40;;;;;29.00;97419.40;;;;108779;1270;41181;-68
2022/06/12 08:40:25;;;;;;;7.40;3.00;;;;;29.40;97418.40;;;;108848;1270;41177;-67
2022/06/12 08:43:01;;;;;;;5.70;2.50;;;;;29.74;97413.80;;;;108969;1269;41203;-67
2022/06/12 08:45:38;;;;;;;6.80;2.50;;;;;30.10;97406.00;;;;108881;1266;41202;-68
2022/06/12 08:48:19;;;;;;;7.70;2.60;;;;;30.18;97408.60;;;;108770;1270;41720;-68
2022/06/12 08:51:22;;;;;;;37.40;18.20;;;;;30.30;97404.00;;;;108938;1269;41268;-67
2022/06/12 08:54:03;;;;;;;8.40;3.60;;;;;30.50;97406.80;;;;108822;1270;41223;-68
2022/06/12 08:56:42;;;;;;;5.70;2.40;;;;;30.52;97406.20;;;;108960;1269;41218;-68
2022/06/12 08:59:20;;;;;;;5.20;2.30;;;;;30.50;97407.40;;;;109067;1270;41168;-67
2022/06/12 09:01:49;;;;;;;4.80;2.20;;;;;30.60;97412.20;;;;109026;1267;42402;-68
2022/06/12 09:04:20;;;;;;;5.60;2.30;;;;;30.60;97411.00;;;;109004;1267;41635;-67
2022/06/12 09:06:54;;;;;;;6.90;2.40;;;;;30.06;97408.20;;;;109007;1269;41315;-68
2022/06/12 09:09:34;;;;;;;5.80;2.70;;;;;29.20;97412.80;;;;109011;1267;41171;-68
2022/06/12 09:12:17;;;;;;;7.70;2.90;;;;;28.60;97419.80;;;;109075;1267;42246;-68
2022/06/12 09:15:01;;;;;;;7.10;3.10;;;;;28.90;97414.60;;;;108973;1267;41741;-68
2022/06/12 09:17:48;;;;;;;5.80;2.40;;;;;28.80;97409.20;;;;108965;1269;42169;-68
2022/06/12 09:20:32;;;;;;;6.30;2.70;;;;;28.90;97414.00;;;;108994;1267;41180;-68
2022/06/12 09:23:10;;;;;;;6.80;2.60;;;;;29.00;97418.00;;;;109042;1267;41380;-68
2022/06/12 09:25:54;;;;;;;6.60;2.50;;;;;29.20;97418.60;;;;109071;1267;41174;-67
2022/06/12 09:28:44;;;;;;;7.40;2.80;;;;;29.50;97415.00;;;;108944;1268;41921;-67
2022/06/12 09:31:24;;;;;;;6.10;2.50;;;;;29.64;97411.00;;;;108861;1267;41290;-69
2022/06/12 09:34:14;;;;;;;7.30;3.10;;;;;29.72;97400.00;;;;109203;1267;41166;-68
2022/06/12 09:36:59;;;;;;;9.20;2.80;;;;;30.72;97397.00;;;;108892;1270;41298;-67
2022/06/12 09:39:46;;;;;;;11.00;5.50;;;;;30.80;97400.00;;;;108914;1267;41809;-68
2022/06/12 09:42:22;;;;;;;6.80;3.10;;;;;31.00;97402.00;;;;109048;1267;41177;-68
2022/06/12 09:45:05;;;;;;;6.70;2.50;;;;;30.84;97396.60;;;;108949;1269;41278;-68
2022/06/12 09:47:45;;;;;;;14.40;8.90;;;;;30.82;97397.00;;;;108996;1267;41973;-67
2022/06/12 09:50:45;;;;;;;9.10;3.00;;;;;31.10;97397.60;;;;108985;1267;41179;-68
2022/06/12 09:54:05;;;;;;;6.40;3.10;;;;;31.24;97393.40;;;;108893;1267;41725;-68
2022/06/12 09:56:40;;;;;;;8.20;2.40;;;;;32.64;97381.60;;;;108607;1270;41399;-67
2022/06/12 09:59:17;;;;;;;6.60;2.60;;;;;32.70;97387.60;;;;108752;1267;42415;-68
2022/06/12 10:01:50;;;;;;;4.80;2.40;;;;;33.00;97391.20;;;;108845;1267;41639;-68
2022/06/12 10:04:26;;;;;;;6.10;2.50;;;;;32.80;97381.00;;;;108832;1267;41180;-66
2022/06/12 10:06:59;;;;;;;10.20;4.10;;;;;30.64;97382.20;;;;108956;1267;41943;-66
2022/06/12 10:09:32;;;;;;;5.30;2.40;;;;;32.68;97378.40;;;;108903;1267;41746;-66
2022/06/12 10:12:09;;;;;;;6.40;2.50;;;;;32.34;97378.40;;;;108938;1267;41692;-68
2022/06/12 10:15:09;;;;;;;6.00;2.10;;;;;32.46;97382.40;;;;108963;1267;41588;-68
2022/06/12 10:17:46;;;;;;;5.40;2.20;;;;;31.98;97384.60;;;;108790;1267;41296;-68
2022/06/12 10:20:22;;;;;;;4.70;2.00;;;;;31.70;97382.60;;;;108860;1270;41351;-69
2022/06/12 10:22:53;;;;;;;11.80;5.50;;;;;29.82;97381.40;;;;108760;1269;41181;-67
2022/06/12 10:25:40;;;;;;;8.20;3.60;;;;;28.44;97387.80;;;;108815;1268;42404;-68
2022/06/12 10:28:11;;;;;;;7.60;2.90;;;;;29.00;97389.40;;;;108752;1269;41231;-67
2022/06/12 10:31:27;;;;;;;5.70;2.20;;;;;28.16;97376.20;;;;109005;1267;41512;-67
2022/06/12 10:34:21;;;;;;;5.50;2.10;;;;;27.90;97378.60;;;;108656;1274;41167;-68
2022/06/12 10:36:50;;;;;;;5.60;2.50;;;;;27.58;97384.00;;;;108426;1274;41203;-68
2022/06/12 10:39:22;;;;;;;11.80;2.70;;;;;27.52;97380.60;;;;108597;1273;41534;-67
2022/06/12 10:42:02;;;;;;;4.70;2.10;;;;;27.38;97379.60;;;;108626;1273;41184;-67
2022/06/12 10:44:56;;;;;;;6.90;2.40;;;;;27.90;97381.40;;;;108615;1273;41176;-67
2022/06/12 10:47:32;;;;;;;4.50;2.00;;;;;28.58;97379.80;;;;108644;1272;41196;-68
2022/06/12 10:50:14;;;;;;;4.30;1.80;;;;;29.22;97375.20;;;;108650;1273;41575;-68
2022/06/12 10:53:16;;;;;;;4.30;1.90;;;;;29.76;97372.00;;;;108648;1274;41230;-68
2022/06/12 10:56:09;;;;;;;5.70;2.40;;;;;29.56;97367.80;;;;108279;1279;42430;-68
2022/06/12 10:58:52;;;;;;;3.90;1.80;;;;;30.16;97370.20;;;;108249;1280;41634;-67
2022/06/12 11:01:43;;;;;;;2.40;1.50;;;;;31.04;97363.20;;;;108207;1279;42234;-67
2022/06/12 11:04:28;;;;;;;4.60;1.70;;;;;32.02;97353.20;;;;108142;1279;40816;-67
2022/06/12 11:07:20;;;;;;;3.40;1.50;;;;;31.54;97346.60;;;;108084;1279;41296;-67
2022/06/12 11:10:07;;;;;;;1.60;1.30;;;;;32.14;97349.60;;;;108019;1279;42137;-67
2022/06/12 11:13:05;;;;;;;2.40;1.50;;;;;32.04;97347.60;;;;108285;1276;41200;-67
2022/06/12 11:16:10;;;;;;;5.60;1.70;;;;;31.16;97355.00;;;;108290;1276;41690;-67
2022/06/12 11:18:40;;;;;;;3.90;1.70;;;;;29.48;97349.80;;;;108229;1276;41451;-68
2022/06/12 11:21:15;;;;;;;3.30;1.80;;;;;30.38;97343.00;;;;108287;1276;41359;-68
2022/06/12 11:24:21;;;;;;;3.30;1.60;;;;;29.94;97340.60;;;;108254;1276;41675;-67
2022/06/12 11:26:58;;;;;;;2.70;1.50;;;;;30.24;97342.40;;;;108195;1276;41350;-67
2022/06/12 11:29:51;;;;;;;3.60;1.60;;;;;30.66;97337.00;;;;108182;1276;41228;-68
2022/06/12 11:32:44;;;;;;;3.80;1.70;;;;;30.06;97341.40;;;;108648;1270;41181;-68
2022/06/12 11:35:22;;;;;;;3.10;1.60;;;;;29.88;97339.40;;;;108925;1267;41188;-67
2022/06/12 11:38:22;;;;;;;5.50;1.80;;;;;29.14;97346.40;;;;108901;1268;41177;-70
2022/06/12 11:41:24;;;;;;;2.60;1.60;;;;;28.66;97341.60;;;;109023;1267;41164;-68
2022/06/12 11:44:06;;;;;;;2.20;1.60;;;;;28.12;97336.80;;;;108852;1269;41177;-68
2022/06/12 11:46:51;;;;;;;3.10;1.70;;;;;28.52;97335.40;;;;108888;1269;41293;-68
2022/06/12 11:49:29;;;;;;;3.60;1.80;;;;;29.44;97328.20;;;;108945;1267;41163;-68
2022/06/12 11:52:34;;;;;;;2.50;1.50;;;;;29.70;97322.20;;;;109002;1269;41172;-69
2022/06/12 11:55:10;;;;;;;4.60;1.80;;;;;31.82;97319.20;;;;108953;1267;41408;-68
2022/06/12 11:57:56;;;;;;;4.30;1.70;;;;;33.16;97311.40;;;;109038;1267;42408;-68
2022/06/12 12:00:51;;;;;;;2.60;1.60;;;;;34.48;97310.00;;;;109082;1268;41327;-68
2022/06/12 12:03:39;;;;;;;4.30;1.90;;;;;35.02;97313.20;;;;109020;1267;41376;-70
2022/06/12 12:06:24;;;;;;;3.50;1.60;;;;;33.50;97311.60;;;;109052;1267;41220;-69
2022/06/12 12:09:00;;;;;;;4.10;1.80;;;;;33.20;97315.00;;;;108900;1267;41175;-68
2022/06/12 12:11:33;;;;;;;4.10;1.80;;;;;32.90;97312.60;;;;109018;1267;41647;-68
2022/06/12 12:14:04;;;;;;;7.10;1.80;;;;;32.80;97315.00;;;;109058;1267;41150;-68
2022/06/12 12:16:48;;;;;;;2.70;1.70;;;;;32.30;97315.00;;;;108926;1268;42195;-68
2022/06/12 12:19:47;;;;;;;5.50;1.80;;;;;31.78;97311.60;;;;108906;1269;41164;-68
2022/06/12 12:22:20;;;;;;;;;;;;;31.30;97317.40;;;;109000;1267;42399;-68
2022/06/12 12:24:57;;;;;;;2.50;1.60;;;;;31.12;97315.20;;;;109036;1267;41189;-68
2022/06/12 12:27:41;;;;;;;5.30;2.10;;;;;31.02;97307.60;;;;108987;1267;41219;-68
2022/06/12 12:30:23;;;;;;;6.50;2.00;;;;;30.70;97306.20;;;;109065;1268;41187;-68
2022/06/12 12:32:56;;;;;;;3.90;1.80;;;;;30.50;97304.80;;;;108981;1267;41184;-68
2022/06/12 12:41:13;;;;;;;4.30;1.80;;;;;30.14;97297.40;;;;108723;1267;41307;-68
2022/06/12 12:43:51;;;;;;;6.10;2.10;;;;;30.10;97292.80;;;;108889;1267;41212;-68
2022/06/12 12:46:22;;;;;;;4.00;1.90;;;;;30.10;97294.40;;;;108960;1270;41637;-68
2022/06/12 12:48:55;;;;;;;4.80;2.10;;;;;30.00;97291.40;;;;109190;1267;41149;-69
2022/06/12 12:51:34;;;;;;;5.70;2.20;;;;;30.00;97292.60;;;;109020;1268;42316;-68
2022/06/12 12:54:12;;;;;;;4.40;2.10;;;;;29.80;97294.80;;;;108802;1270;40910;-69
2022/06/12 12:57:01;;;;;;;8.70;2.20;;;;;29.68;97295.60;;;;109014;1267;41838;-69
2022/06/12 12:59:42;;;;;;;4.70;2.00;;;;;29.66;97294.40;;;;109015;1267;40940;-68
2022/06/12 13:02:22;;;;;;;4.10;2.10;;;;;29.60;97289.80;;;;109012;1267;41306;-68
2022/06/12 13:04:59;;;;;;;6.10;2.10;;;;;29.50;97289.80;;;;108705;1270;41609;-66
2022/06/12 13:07:56;;;;;;;4.70;2.20;;;;;29.20;97287.80;;;;108912;1267;41163;-66
2022/06/12 13:10:25;;;;;;;5.70;2.20;;;;;29.20;97293.20;;;;108798;1267;41189;-66
2022/06/12 13:13:07;;;;;;;8.00;2.60;;;;;29.20;97295.80;;;;108913;1267;42651;-67
2022/06/12 13:15:57;;;;;;;4.90;2.20;;;;;29.20;97290.60;;;;109069;1267;41662;-68
2022/06/12 13:18:40;;;;;;;;;;;;;29.16;97285.80;;;;108971;1267;41405;-68